Cloverdale, Ohio
Current Conditions -  °F | °C
As of 3:53 PM on Thursday 23 Oct 2014 (Local Time) from KDFI Reporting Station
Clear Clear  
Wind Chill: 57°   Ceiling: Unl
Heat Index: 57°   Visibility: 10mi
Dew Point: 38°   Wind: 0mph
Humidity: 49%   Direction: NA
Pressure: 30.15"   Gusts: NA
Location:  41.02°N, 84.3°W
Report Text: KDFI 231953Z AUTO 00000KT 10SM CLR 14/03 A3015 RMK AO2 SLP215 T01390033
Loading
Personal Weather Stations






























Interactive Weather Map
Tropical Storm Tracking
New forecast layout! Learn more

10-Day Weather Forecast

Advertisements
Track Severe Weather on mobile